createdAt,value
2023-03-11T00:00:46.855Z,100.00
2023-03-11T00:03:16.033Z,100.00
2023-03-11T00:05:44.725Z,100.00
2023-03-11T00:08:14.962Z,100.00
2023-03-11T00:10:43.867Z,100.00
2023-03-11T00:13:13.373Z,100.00
2023-03-11T00:15:40.841Z,100.00
2023-03-11T00:18:07.787Z,100.00
2023-03-11T00:20:37.060Z,100.00
2023-03-11T00:23:05.709Z,100.00
2023-03-11T00:25:33.684Z,100.00
2023-03-11T00:28:00.745Z,100.00
2023-03-11T00:30:28.789Z,100.00
2023-03-11T00:32:58.045Z,100.00
2023-03-11T00:35:28.460Z,100.00
2023-03-11T00:38:01.068Z,100.00
2023-03-11T00:40:31.106Z,100.00
2023-03-11T00:42:58.409Z,100.00
2023-03-11T00:45:26.432Z,100.00
2023-03-11T00:47:53.974Z,100.00
2023-03-11T00:50:29.848Z,100.00
2023-03-11T00:52:57.266Z,100.00
2023-03-11T00:55:31.021Z,100.00
2023-03-11T00:58:02.126Z,100.00
2023-03-11T01:00:35.081Z,100.00
2023-03-11T01:03:03.901Z,100.00
2023-03-11T01:05:32.512Z,100.00
2023-03-11T01:07:59.833Z,100.00
2023-03-11T01:10:27.588Z,100.00
2023-03-11T01:12:54.383Z,100.00
2023-03-11T01:15:34.418Z,100.00
2023-03-11T01:18:01.879Z,100.00
2023-03-11T01:20:29.248Z,100.00
2023-03-11T01:22:55.948Z,100.00
2023-03-11T01:25:24.438Z,100.00
2023-03-11T01:27:51.488Z,100.00
2023-03-11T01:30:23.683Z,100.00
2023-03-11T01:32:52.217Z,100.00
2023-03-11T01:35:21.368Z,100.00
2023-03-11T01:37:48.156Z,100.00
2023-03-11T01:40:21.145Z,100.00
2023-03-11T01:42:47.857Z,100.00
2023-03-11T01:45:53.261Z,100.00
2023-03-11T01:48:23.518Z,100.00
2023-03-11T01:50:50.822Z,100.00
2023-03-11T01:53:18.022Z,100.00
2023-03-11T01:55:46.813Z,100.00
2023-03-11T01:58:23.966Z,100.00
2023-03-11T02:00:51.404Z,100.00
2023-03-11T02:03:24.141Z,100.00
2023-03-11T02:05:53.987Z,100.00
2023-03-11T02:08:20.662Z,100.00
2023-03-11T02:10:49.420Z,100.00
2023-03-11T02:13:16.833Z,100.00
2023-03-11T02:15:44.252Z,100.00
2023-03-11T02:18:14.721Z,100.00
2023-03-11T02:20:51.085Z,100.00
2023-03-11T02:23:20.921Z,100.00
2023-03-11T02:25:59.782Z,100.00
2023-03-11T02:28:28.214Z,100.00
2023-03-11T02:30:56.654Z,100.00
2023-03-11T02:33:30.747Z,100.00
2023-03-11T02:35:57.663Z,100.00
2023-03-11T02:38:24.819Z,100.00
2023-03-11T02:41:06.364Z,100.00
2023-03-11T02:43:46.658Z,100.00
2023-03-11T02:46:16.862Z,100.00
2023-03-11T02:48:43.893Z,100.00
2023-03-11T02:51:12.064Z,100.00
2023-03-11T02:53:44.932Z,100.00
2023-03-11T02:56:11.591Z,100.00
2023-03-11T02:58:38.289Z,100.00
2023-03-11T03:01:05.049Z,100.00
2023-03-11T03:03:31.919Z,100.00
2023-03-11T03:05:58.578Z,100.00
2023-03-11T03:08:25.291Z,100.00
2023-03-11T03:10:53.544Z,100.00
2023-03-11T03:13:20.337Z,100.00
2023-03-11T03:15:47.293Z,100.00
2023-03-11T03:18:14.054Z,100.00
2023-03-11T03:20:40.801Z,100.00
2023-03-11T03:23:07.557Z,100.00
2023-03-11T03:25:34.351Z,100.00
2023-03-11T03:28:05.116Z,100.00
2023-03-11T03:30:34.609Z,100.00
2023-03-11T03:33:01.324Z,100.00
2023-03-11T03:35:29.438Z,100.00
2023-03-11T03:38:09.320Z,100.00
2023-03-11T03:40:38.229Z,100.00
2023-03-11T03:43:06.519Z,100.00
2023-03-11T03:45:35.259Z,100.00
2023-03-11T03:48:02.111Z,100.00
2023-03-11T03:50:32.228Z,100.00
2023-03-11T03:52:58.954Z,100.00
2023-03-11T03:55:26.630Z,100.00
2023-03-11T03:57:54.198Z,100.00
2023-03-11T04:00:24.689Z,100.00
2023-03-11T04:02:57.438Z,100.00
2023-03-11T04:05:32.123Z,100.00
2023-03-11T04:08:00.605Z,100.00
2023-03-11T04:10:28.413Z,100.00
2023-03-11T04:12:55.537Z,100.00
2023-03-11T04:15:22.192Z,100.00
2023-03-11T04:17:49.334Z,100.00
2023-03-11T04:20:16.652Z,100.00
2023-03-11T04:22:46.424Z,100.00
2023-03-11T04:25:13.143Z,100.00
2023-03-11T04:27:42.676Z,100.00
2023-03-11T04:30:10.196Z,100.00
2023-03-11T04:32:36.971Z,100.00
2023-03-11T04:35:05.948Z,100.00
2023-03-11T04:37:33.771Z,100.00
2023-03-11T04:40:00.934Z,100.00
2023-03-11T04:42:28.283Z,100.00
2023-03-11T04:44:54.966Z,100.00
2023-03-11T04:47:22.196Z,100.00
2023-03-11T04:49:49.037Z,100.00
2023-03-11T04:52:15.698Z,100.00
2023-03-11T04:54:42.533Z,100.00
2023-03-11T04:57:09.233Z,100.00
2023-03-11T04:59:37.033Z,100.00
2023-03-11T05:02:04.049Z,100.00
2023-03-11T05:04:31.391Z,100.00
2023-03-11T05:06:58.109Z,100.00
2023-03-11T05:09:25.809Z,100.00
2023-03-11T05:11:53.368Z,100.00
2023-03-11T05:14:21.035Z,100.00
2023-03-11T05:16:49.221Z,100.00
2023-03-11T05:19:31.367Z,100.00
2023-03-11T05:22:01.821Z,100.00
2023-03-11T05:24:29.460Z,100.00
2023-03-11T05:26:56.745Z,100.00
2023-03-11T05:29:24.832Z,100.00
2023-03-11T05:31:54.050Z,100.00
2023-03-11T05:34:21.277Z,100.00
2023-03-11T05:36:48.116Z,100.00
2023-03-11T05:39:15.298Z,100.00
2023-03-11T05:41:42.254Z,100.00
2023-03-11T05:44:08.870Z,100.00
2023-03-11T05:46:35.665Z,100.00
2023-03-11T05:49:05.014Z,100.00
2023-03-11T05:51:31.686Z,100.00
2023-03-11T05:53:58.721Z,100.00
2023-03-11T05:56:33.994Z,100.00
2023-03-11T05:59:00.853Z,100.00
2023-03-11T06:01:31.159Z,100.00
2023-03-11T06:03:58.154Z,100.00
2023-03-11T06:06:24.883Z,100.00
2023-03-11T06:08:51.580Z,100.00
2023-03-11T06:11:21.063Z,100.00
2023-03-11T06:13:47.951Z,100.00
2023-03-11T06:16:14.640Z,100.00
2023-03-11T06:18:41.407Z,100.00
2023-03-11T06:21:15.752Z,100.00
2023-03-11T06:23:42.438Z,100.00
2023-03-11T06:26:12.301Z,100.00
2023-03-11T06:28:45.799Z,100.00
2023-03-11T06:31:25.356Z,100.00
2023-03-11T06:33:55.900Z,100.00
2023-03-11T06:36:23.699Z,100.00
2023-03-11T06:38:55.015Z,100.00
2023-03-11T06:41:24.455Z,100.00
2023-03-11T06:43:51.519Z,100.00
2023-03-11T06:46:21.808Z,100.00
2023-03-11T06:48:53.249Z,100.00
2023-03-11T06:51:21.920Z,100.00
2023-03-11T06:53:53.294Z,100.00
2023-03-11T06:56:22.880Z,100.00
2023-03-11T06:58:55.403Z,100.00
2023-03-11T07:01:25.351Z,100.00
2023-03-11T07:03:54.496Z,100.00
2023-03-11T07:06:26.534Z,100.00
2023-03-11T07:08:59.238Z,100.00
2023-03-11T07:11:28.564Z,100.00
2023-03-11T07:14:06.454Z,100.00
2023-03-11T07:16:38.548Z,100.00
2023-03-11T07:19:11.205Z,100.00
2023-03-11T07:21:38.796Z,100.00
2023-03-11T07:24:06.504Z,100.00
2023-03-11T07:26:35.036Z,100.00
2023-03-11T07:29:02.351Z,100.00
2023-03-11T07:31:31.872Z,100.00
2023-03-11T07:34:01.038Z,100.00
2023-03-11T07:36:28.945Z,100.00
2023-03-11T07:39:04.230Z,100.00
2023-03-11T07:41:35.767Z,100.00
2023-03-11T07:44:03.708Z,100.00
2023-03-11T07:46:32.069Z,100.00
2023-03-11T07:48:59.171Z,100.00
2023-03-11T07:51:29.207Z,100.00
2023-03-11T07:53:58.426Z,100.00
2023-03-11T07:56:27.544Z,100.00
2023-03-11T07:58:55.064Z,100.00
2023-03-11T08:01:24.690Z,100.00
2023-03-11T08:03:57.101Z,100.00
2023-03-11T08:06:27.649Z,100.00
2023-03-11T08:08:54.543Z,100.00
2023-03-11T08:11:22.385Z,100.00
2023-03-11T08:13:49.322Z,100.00
2023-03-11T08:16:19.272Z,97.32
2023-03-11T08:18:47.800Z,97.17
2023-03-11T08:21:19.703Z,98.04
2023-03-11T08:23:46.389Z,89.63
2023-03-11T08:26:17.039Z,86.42
2023-03-11T08:28:44.563Z,89.65
2023-03-11T08:31:22.310Z,88.73
2023-03-11T08:33:51.142Z,88.52
2023-03-11T08:37:31.977Z,86.37
2023-03-11T08:40:32.350Z,88.96
2023-03-11T08:43:40.859Z,79.28
2023-03-11T08:46:41.637Z,78.66
2023-03-11T08:49:17.170Z,78.96
2023-03-11T08:52:12.248Z,73.09
2023-03-11T08:55:11.857Z,70.08
2023-03-11T08:57:59.809Z,67.88
2023-03-11T09:00:32.902Z,75.57
2023-03-11T09:03:10.943Z,76.22
2023-03-11T09:05:50.458Z,66.08
2023-03-11T09:08:28.494Z,61.76
2023-03-11T09:11:15.938Z,65.63
2023-03-11T09:14:01.251Z,63.13
2023-03-11T09:16:37.390Z,64.11
2023-03-11T09:19:23.705Z,64.09
2023-03-11T09:21:55.084Z,60.25
2023-03-11T09:24:28.566Z,59.00
2023-03-11T09:26:58.382Z,57.13
2023-03-11T09:29:34.479Z,58.68
2023-03-11T09:32:11.627Z,58.74
2023-03-11T09:34:39.033Z,59.18
2023-03-11T09:37:10.433Z,58.47
2023-03-11T09:39:40.644Z,58.18
2023-03-11T09:46:08.353Z,53.72
2023-03-11T09:53:14.441Z,57.89
2023-03-11T09:58:16.326Z,58.64
2023-03-11T10:07:58.873Z,55.59
2023-03-11T10:15:09.223Z,54.66
2023-03-11T10:25:56.424Z,52.30
2023-03-11T10:29:54.801Z,54.13
2023-03-11T10:36:38.302Z,56.16
2023-03-11T10:39:19.251Z,52.08
2023-03-11T10:43:25.461Z,54.13
2023-03-11T10:46:23.386Z,54.90
2023-03-11T10:52:48.932Z,55.26
2023-03-11T10:56:12.165Z,53.67
2023-03-11T11:04:40.433Z,55.56
2023-03-11T11:10:14.018Z,55.32
2023-03-11T11:32:53.932Z,56.02
2023-03-11T11:36:24.383Z,58.04
2023-03-11T11:48:12.156Z,58.41
2023-03-11T11:55:52.599Z,59.96
2023-03-11T12:12:24.798Z,70.05
2023-03-11T12:14:54.112Z,64.27
2023-03-11T12:17:23.642Z,65.17
2023-03-11T12:19:56.463Z,63.63
2023-03-11T12:22:42.159Z,66.89
2023-03-11T12:25:30.779Z,69.63
2023-03-11T12:28:09.139Z,66.14
2023-03-11T12:30:44.303Z,58.77
2023-03-11T12:33:31.086Z,67.07
2023-03-11T12:35:59.528Z,67.89
2023-03-11T12:38:40.675Z,68.59
2023-03-11T12:41:42.876Z,64.58
2023-03-11T12:44:21.796Z,65.44
2023-03-11T12:46:54.281Z,66.91
2023-03-11T12:49:26.473Z,61.96
2023-03-11T12:52:17.739Z,58.61
2023-03-11T12:55:01.162Z,59.42
2023-03-11T12:57:34.210Z,63.88
2023-03-11T13:00:17.562Z,64.26
2023-03-11T13:03:02.930Z,60.21
2023-03-11T13:05:44.525Z,60.78
2023-03-11T13:08:27.179Z,59.76
2023-03-11T13:10:55.815Z,58.96
2023-03-11T13:13:25.427Z,59.43
2023-03-11T13:15:52.949Z,61.17
2023-03-11T13:18:26.658Z,64.71
2023-03-11T13:21:04.037Z,61.36
2023-03-11T13:23:35.757Z,62.50
2023-03-11T13:26:24.127Z,64.19
2023-03-11T13:29:18.025Z,61.30
2023-03-11T13:31:56.590Z,60.95
2023-03-11T13:34:35.305Z,61.51
2023-03-11T13:37:07.898Z,62.02
2023-03-11T13:39:55.085Z,64.30
2023-03-11T13:42:30.840Z,63.54
2023-03-11T13:44:58.820Z,65.49
2023-03-11T13:47:27.235Z,67.45
2023-03-11T13:49:56.851Z,63.47
2023-03-11T13:52:53.474Z,61.79
2023-03-11T13:55:23.346Z,59.27
2023-03-11T13:57:57.341Z,58.41
2023-03-11T14:00:28.528Z,58.01
2023-03-11T14:02:58.404Z,59.56
2023-03-11T14:05:32.038Z,59.54
2023-03-11T14:08:25.370Z,57.60
2023-03-11T14:10:53.218Z,60.92
2023-03-11T14:13:20.054Z,64.34
2023-03-11T14:15:57.537Z,62.02
2023-03-11T14:18:36.893Z,63.12
2023-03-11T14:21:06.449Z,64.87
2023-03-11T14:23:36.400Z,63.99
2023-03-11T14:26:12.774Z,63.81
2023-03-11T14:28:42.910Z,62.86
2023-03-11T14:31:25.823Z,61.46
2023-03-11T14:33:58.521Z,61.57
2023-03-11T14:36:25.292Z,62.55
2023-03-11T14:38:51.997Z,60.56
2023-03-11T14:41:18.685Z,62.52
2023-03-11T14:43:50.659Z,65.75
2023-03-11T14:46:24.786Z,63.30
2023-03-11T14:48:53.102Z,64.04
2023-03-11T14:51:29.359Z,61.72
2023-03-11T14:54:04.994Z,64.19
2023-03-11T14:56:34.402Z,62.45
2023-03-11T14:59:26.825Z,62.16
2023-03-11T15:01:58.106Z,62.18
2023-03-11T15:04:35.313Z,61.48
2023-03-11T15:07:04.450Z,60.61
2023-03-11T15:09:32.210Z,64.21
2023-03-11T15:12:04.281Z,62.80
2023-03-11T15:14:34.101Z,64.09
2023-03-11T15:17:36.198Z,66.25
2023-03-11T15:20:24.234Z,66.30
2023-03-11T15:23:01.420Z,65.43
2023-03-11T15:25:31.717Z,68.13
2023-03-11T15:27:58.679Z,69.75
2023-03-11T15:30:29.260Z,70.38
2023-03-11T15:32:56.842Z,74.38
2023-03-11T15:35:31.111Z,74.65
2023-03-11T15:38:25.444Z,72.13
2023-03-11T15:41:01.094Z,72.16
2023-03-11T15:43:33.063Z,73.67
2023-03-11T15:46:02.490Z,71.29
2023-03-11T15:48:30.004Z,69.80
2023-03-11T15:50:58.738Z,72.70
2023-03-11T15:53:27.457Z,72.40
2023-03-11T15:56:05.982Z,73.44
2023-03-11T15:58:33.489Z,80.75
2023-03-11T16:01:00.282Z,96.37
2023-03-11T16:03:26.966Z,100.00
2023-03-11T16:05:53.627Z,100.00
2023-03-11T16:08:20.278Z,100.00
2023-03-11T16:10:46.999Z,100.00
2023-03-11T16:13:15.249Z,100.00
2023-03-11T16:15:42.890Z,100.00
2023-03-11T16:18:11.181Z,100.00
2023-03-11T16:20:49.397Z,100.00
2023-03-11T16:23:50.171Z,100.00
2023-03-11T16:26:17.652Z,100.00
2023-03-11T16:28:44.336Z,100.00
2023-03-11T16:31:11.046Z,100.00
2023-03-11T16:33:37.787Z,100.00
2023-03-11T16:36:05.140Z,100.00
2023-03-11T16:38:36.392Z,100.00
2023-03-11T16:41:03.338Z,100.00
2023-03-11T16:43:31.684Z,100.00
2023-03-11T16:45:58.354Z,100.00
2023-03-11T16:48:25.419Z,100.00
2023-03-11T16:50:52.054Z,100.00
2023-03-11T16:53:18.684Z,100.00
2023-03-11T16:55:46.055Z,100.00
2023-03-11T16:58:13.883Z,100.00
2023-03-11T17:00:41.941Z,100.00
2023-03-11T17:03:14.314Z,100.00
2023-03-11T17:05:41.310Z,100.00
2023-03-11T17:08:07.978Z,100.00
2023-03-11T17:10:43.550Z,100.00
2023-03-11T17:13:12.669Z,100.00
2023-03-11T17:15:42.276Z,100.00
2023-03-11T17:18:09.073Z,100.00
2023-03-11T17:20:38.228Z,100.00
2023-03-11T17:23:04.861Z,100.00
2023-03-11T17:25:31.592Z,100.00
2023-03-11T17:27:58.204Z,100.00
2023-03-11T17:30:36.434Z,100.00
2023-03-11T17:33:04.132Z,100.00
2023-03-11T17:35:30.761Z,100.00
2023-03-11T17:37:57.590Z,100.00
2023-03-11T17:40:24.517Z,100.00
2023-03-11T17:42:51.225Z,100.00
2023-03-11T17:45:17.996Z,100.00
2023-03-11T17:47:44.598Z,100.00
2023-03-11T17:50:12.172Z,100.00
2023-03-11T17:52:39.080Z,100.00
2023-03-11T17:55:06.417Z,100.00
2023-03-11T17:57:42.929Z,100.00
2023-03-11T18:00:14.625Z,100.00
2023-03-11T18:02:41.351Z,100.00
2023-03-11T18:05:09.270Z,100.00
2023-03-11T18:07:39.064Z,100.00
2023-03-11T18:10:07.875Z,100.00
2023-03-11T18:12:34.834Z,100.00
2023-03-11T18:15:06.040Z,100.00
2023-03-11T18:17:35.280Z,100.00
2023-03-11T18:20:02.325Z,100.00
2023-03-11T18:22:28.994Z,100.00
2023-03-11T18:24:55.607Z,100.00
2023-03-11T18:27:22.269Z,100.00
2023-03-11T18:29:48.893Z,100.00
2023-03-11T18:32:15.712Z,100.00
2023-03-11T18:34:42.531Z,100.00
2023-03-11T18:37:09.336Z,100.00
2023-03-11T18:39:36.003Z,100.00
2023-03-11T18:42:02.978Z,100.00
2023-03-11T18:44:29.665Z,100.00
2023-03-11T18:46:56.426Z,100.00
2023-03-11T18:49:23.101Z,100.00
2023-03-11T18:51:49.911Z,100.00
2023-03-11T18:54:16.524Z,100.00
2023-03-11T18:56:43.143Z,100.00
2023-03-11T18:59:12.086Z,100.00
2023-03-11T19:01:38.938Z,100.00
2023-03-11T19:04:06.004Z,100.00
2023-03-11T19:06:32.829Z,100.00
2023-03-11T19:08:59.476Z,100.00
2023-03-11T19:11:26.233Z,100.00
2023-03-11T19:13:53.257Z,100.00
2023-03-11T19:16:24.056Z,100.00
2023-03-11T19:18:51.516Z,100.00
2023-03-11T19:21:18.201Z,100.00
2023-03-11T19:23:45.392Z,100.00
2023-03-11T19:26:12.284Z,100.00
2023-03-11T19:28:39.133Z,100.00
2023-03-11T19:31:06.158Z,100.00
2023-03-11T19:33:32.922Z,100.00
2023-03-11T19:36:02.008Z,100.00
2023-03-11T19:38:29.301Z,100.00
2023-03-11T19:41:11.267Z,100.00
2023-03-11T19:43:38.161Z,100.00
2023-03-11T19:46:06.739Z,100.00
2023-03-11T19:48:33.709Z,100.00
2023-03-11T19:51:02.313Z,100.00
2023-03-11T19:53:29.185Z,100.00
2023-03-11T19:55:57.051Z,100.00
2023-03-11T19:58:29.431Z,100.00
2023-03-11T20:00:58.260Z,100.00
2023-03-11T20:03:25.859Z,100.00
2023-03-11T20:05:54.745Z,100.00
2023-03-11T20:08:22.428Z,100.00
2023-03-11T20:10:52.152Z,100.00
2023-03-11T20:13:20.315Z,100.00
2023-03-11T20:15:47.740Z,100.00
2023-03-11T20:18:14.628Z,100.00
2023-03-11T20:20:43.216Z,100.00
2023-03-11T20:23:11.376Z,100.00
2023-03-11T20:25:39.542Z,100.00
2023-03-11T20:28:06.248Z,100.00
2023-03-11T20:30:33.161Z,100.00
2023-03-11T20:32:59.832Z,100.00
2023-03-11T20:35:26.522Z,100.00
2023-03-11T20:37:53.202Z,100.00
2023-03-11T20:40:20.219Z,100.00
2023-03-11T20:42:47.300Z,100.00
2023-03-11T20:45:17.487Z,100.00
2023-03-11T20:47:44.537Z,100.00
2023-03-11T20:50:12.732Z,100.00
2023-03-11T20:52:39.613Z,100.00
2023-03-11T20:55:08.346Z,100.00
2023-03-11T20:57:35.562Z,100.00
2023-03-11T21:00:04.059Z,100.00
2023-03-11T21:02:33.491Z,100.00
2023-03-11T21:05:03.033Z,100.00
2023-03-11T21:07:29.819Z,100.00
2023-03-11T21:09:57.928Z,100.00
2023-03-11T21:12:24.927Z,100.00
2023-03-11T21:14:51.599Z,100.00
2023-03-11T21:17:18.686Z,100.00
2023-03-11T21:19:45.512Z,100.00
2023-03-11T21:22:12.260Z,100.00
2023-03-11T21:24:39.035Z,100.00
2023-03-11T21:27:05.777Z,100.00
2023-03-11T21:29:32.542Z,100.00
2023-03-11T21:31:59.336Z,100.00
2023-03-11T21:34:26.102Z,100.00
2023-03-11T21:36:52.677Z,100.00
2023-03-11T21:39:21.704Z,100.00
2023-03-11T21:41:48.485Z,100.00
2023-03-11T21:44:15.283Z,100.00
2023-03-11T21:46:42.099Z,100.00
2023-03-11T21:49:08.912Z,100.00
2023-03-11T21:51:35.729Z,100.00
2023-03-11T21:54:05.344Z,100.00
2023-03-11T21:56:32.179Z,100.00
2023-03-11T21:58:58.957Z,100.00
2023-03-11T22:01:25.749Z,100.00
2023-03-11T22:03:52.519Z,100.00
2023-03-11T22:06:19.476Z,100.00
2023-03-11T22:08:46.279Z,100.00
2023-03-11T22:11:17.756Z,100.00
2023-03-11T22:13:49.659Z,100.00
2023-03-11T22:16:16.658Z,100.00
2023-03-11T22:18:43.830Z,100.00
2023-03-11T22:21:11.132Z,100.00
2023-03-11T22:23:38.001Z,100.00
2023-03-11T22:26:04.776Z,100.00
2023-03-11T22:28:31.530Z,100.00
2023-03-11T22:30:58.234Z,100.00
2023-03-11T22:33:25.436Z,100.00
2023-03-11T22:35:57.405Z,100.00
2023-03-11T22:38:24.328Z,100.00
2023-03-11T22:40:51.847Z,100.00
2023-03-11T22:43:18.571Z,100.00
2023-03-11T22:45:45.621Z,100.00
2023-03-11T22:48:12.655Z,100.00
2023-03-11T22:50:47.390Z,100.00
2023-03-11T22:53:15.548Z,100.00
2023-03-11T22:55:45.025Z,100.00
2023-03-11T22:58:12.420Z,100.00
2023-03-11T23:00:39.727Z,100.00
2023-03-11T23:03:06.898Z,100.00
2023-03-11T23:05:40.735Z,100.00
2023-03-11T23:08:12.598Z,100.00
2023-03-11T23:10:41.667Z,100.00
2023-03-11T23:13:08.810Z,100.00
2023-03-11T23:15:35.482Z,100.00
2023-03-11T23:18:02.385Z,100.00
2023-03-11T23:20:29.067Z,100.00
2023-03-11T23:22:55.720Z,100.00
2023-03-11T23:25:22.440Z,100.00
2023-03-11T23:27:49.030Z,100.00
2023-03-11T23:30:17.146Z,100.00
2023-03-11T23:32:44.842Z,100.00
2023-03-11T23:35:12.893Z,100.00
2023-03-11T23:37:39.870Z,100.00
2023-03-11T23:40:07.841Z,100.00
2023-03-11T23:42:35.035Z,100.00
2023-03-11T23:45:01.716Z,100.00
2023-03-11T23:47:28.792Z,100.00
2023-03-11T23:49:55.404Z,100.00
2023-03-11T23:52:22.204Z,100.00
2023-03-11T23:54:48.829Z,100.00
2023-03-11T23:57:15.546Z,100.00
2023-03-11T23:59:42.368Z,100.00
